sensor_id;sensor_type;location;lat;lon;timestamp;pressure;altitude;pressure_sealevel;temperature;humidity
6200;BME280;3133;43.214;27.906;2023-05-27T00:01:14;100408.72;;;17.58;100.00
6200;BME280;3133;43.214;27.906;2023-05-27T00:03:41;100359.16;;;17.11;100.00
6200;BME280;3133;43.214;27.906;2023-05-27T00:06:08;100423.75;;;17.54;100.00
6200;BME280;3133;43.214;27.906;2023-05-27T00:08:35;100429.09;;;17.53;100.00
6200;BME280;3133;43.214;27.906;2023-05-27T00:11:03;100428.00;;;17.60;100.00
6200;BME280;3133;43.214;27.906;2023-05-27T00:13:30;100422.53;;;17.66;100.00
6200;BME280;3133;43.214;27.906;2023-05-27T00:15:57;100441.47;;;17.49;100.00
6200;BME280;3133;43.214;27.906;2023-05-27T00:18:23;100429.22;;;17.47;100.00
6200;BME280;3133;43.214;27.906;2023-05-27T00:20:50;100428.59;;;17.39;100.00
6200;BME280;3133;43.214;27.906;2023-05-27T00:23:17;100378.34;;;17.16;100.00
6200;BME280;3133;43.214;27.906;2023-05-27T00:25:44;100423.22;;;17.42;100.00
6200;BME280;3133;43.214;27.906;2023-05-27T00:28:14;100303.88;;;16.78;100.00
6200;BME280;3133;43.214;27.906;2023-05-27T00:30:41;100417.25;;;17.37;100.00
6200;BME280;3133;43.214;27.906;2023-05-27T00:33:08;100372.38;;;17.09;100.00
6200;BME280;3133;43.214;27.906;2023-05-27T00:35:34;100413.53;;;17.42;100.00
6200;BME280;3133;43.214;27.906;2023-05-27T00:38:04;100343.22;;;17.14;100.00
6200;BME280;3133;43.214;27.906;2023-05-27T00:40:31;100412.72;;;17.40;100.00
6200;BME280;3133;43.214;27.906;2023-05-27T00:43:00;100416.28;;;17.39;100.00
6200;BME280;3133;43.214;27.906;2023-05-27T00:45:28;100406.38;;;17.47;100.00
6200;BME280;3133;43.214;27.906;2023-05-27T00:47:56;100404.53;;;17.51;100.00
6200;BME280;3133;43.214;27.906;2023-05-27T00:50:23;100357.81;;;17.25;100.00
6200;BME280;3133;43.214;27.906;2023-05-27T00:52:50;100399.03;;;17.58;100.00
6200;BME280;3133;43.214;27.906;2023-05-27T00:55:21;100402.38;;;17.63;100.00
6200;BME280;3133;43.214;27.906;2023-05-27T00:57:47;100351.34;;;17.35;100.00
6200;BME280;3133;43.214;27.906;2023-05-27T01:00:15;100398.84;;;17.65;100.00
6200;BME280;3133;43.214;27.906;2023-05-27T01:02:43;100383.09;;;17.61;100.00
6200;BME280;3133;43.214;27.906;2023-05-27T01:05:12;100381.56;;;17.54;100.00
6200;BME280;3133;43.214;27.906;2023-05-27T01:07:47;100372.75;;;17.55;100.00
6200;BME280;3133;43.214;27.906;2023-05-27T01:10:24;100385.59;;;17.66;100.00
6200;BME280;3133;43.214;27.906;2023-05-27T01:12:57;100378.84;;;17.57;100.00
6200;BME280;3133;43.214;27.906;2023-05-27T01:15:26;100384.50;;;17.44;100.00
6200;BME280;3133;43.214;27.906;2023-05-27T01:17:56;100359.19;;;17.38;100.00
6200;BME280;3133;43.214;27.906;2023-05-27T01:20:27;100380.81;;;17.51;100.00
6200;BME280;3133;43.214;27.906;2023-05-27T01:22:56;100385.25;;;17.18;100.00
6200;BME280;3133;43.214;27.906;2023-05-27T01:25:25;100345.50;;;16.97;100.00
6200;BME280;3133;43.214;27.906;2023-05-27T01:27:51;100366.09;;;17.13;100.00
6200;BME280;3133;43.214;27.906;2023-05-27T01:30:22;100384.06;;;17.30;100.00
6200;BME280;3133;43.214;27.906;2023-05-27T01:32:54;100380.50;;;17.31;100.00
6200;BME280;3133;43.214;27.906;2023-05-27T01:35:29;100365.06;;;16.88;100.00
6200;BME280;3133;43.214;27.906;2023-05-27T01:38:02;100343.66;;;16.69;100.00
6200;BME280;3133;43.214;27.906;2023-05-27T01:40:32;100329.19;;;16.53;100.00
6200;BME280;3133;43.214;27.906;2023-05-27T01:43:00;100355.38;;;16.58;100.00
6200;BME280;3133;43.214;27.906;2023-05-27T01:45:27;100379.22;;;16.52;100.00
6200;BME280;3133;43.214;27.906;2023-05-27T01:47:54;100353.09;;;16.44;100.00
6200;BME280;3133;43.214;27.906;2023-05-27T01:50:21;100320.97;;;16.32;100.00
6200;BME280;3133;43.214;27.906;2023-05-27T01:52:48;100342.84;;;16.34;100.00
6200;BME280;3133;43.214;27.906;2023-05-27T01:55:16;100354.69;;;16.51;100.00
6200;BME280;3133;43.214;27.906;2023-05-27T01:57:43;100373.56;;;16.67;100.00
6200;BME280;3133;43.214;27.906;2023-05-27T02:00:11;100333.47;;;16.57;100.00
6200;BME280;3133;43.214;27.906;2023-05-27T02:02:38;100312.16;;;16.33;100.00
6200;BME280;3133;43.214;27.906;2023-05-27T02:05:06;100360.91;;;16.79;100.00
6200;BME280;3133;43.214;27.906;2023-05-27T02:07:32;100364.09;;;16.92;100.00
6200;BME280;3133;43.214;27.906;2023-05-27T02:10:00;100343.97;;;16.90;100.00
6200;BME280;3133;43.214;27.906;2023-05-27T02:12:28;100362.16;;;16.97;100.00
6200;BME280;3133;43.214;27.906;2023-05-27T02:14:55;100370.59;;;17.10;100.00
6200;BME280;3133;43.214;27.906;2023-05-27T02:17:21;100343.72;;;16.66;100.00
6200;BME280;3133;43.214;27.906;2023-05-27T02:19:49;100358.16;;;16.84;100.00
6200;BME280;3133;43.214;27.906;2023-05-27T02:22:16;100331.53;;;16.64;100.00
6200;BME280;3133;43.214;27.906;2023-05-27T02:24:43;100375.66;;;16.86;100.00
6200;BME280;3133;43.214;27.906;2023-05-27T02:27:11;100365.03;;;16.90;100.00
6200;BME280;3133;43.214;27.906;2023-05-27T02:29:39;100361.47;;;16.92;100.00
6200;BME280;3133;43.214;27.906;2023-05-27T02:32:06;100352.69;;;16.90;100.00
6200;BME280;3133;43.214;27.906;2023-05-27T02:34:33;100364.75;;;16.99;100.00
6200;BME280;3133;43.214;27.906;2023-05-27T02:37:03;100374.69;;;16.89;100.00
6200;BME280;3133;43.214;27.906;2023-05-27T02:39:30;100370.03;;;16.99;100.00
6200;BME280;3133;43.214;27.906;2023-05-27T02:41:57;100369.75;;;17.08;100.00
6200;BME280;3133;43.214;27.906;2023-05-27T02:44:24;100337.00;;;16.87;100.00
6200;BME280;3133;43.214;27.906;2023-05-27T02:46:52;100375.66;;;17.17;100.00
6200;BME280;3133;43.214;27.906;2023-05-27T02:49:19;100381.59;;;17.24;100.00
6200;BME280;3133;43.214;27.906;2023-05-27T02:51:46;100383.09;;;17.32;100.00
6200;BME280;3133;43.214;27.906;2023-05-27T02:54:13;100383.03;;;17.34;100.00
6200;BME280;3133;43.214;27.906;2023-05-27T02:56:40;100378.38;;;17.43;100.00
6200;BME280;3133;43.214;27.906;2023-05-27T02:59:06;100385.28;;;17.47;100.00
6200;BME280;3133;43.214;27.906;2023-05-27T03:01:33;100385.19;;;17.50;100.00
6200;BME280;3133;43.214;27.906;2023-05-27T03:04:02;100375.53;;;17.51;100.00
6200;BME280;3133;43.214;27.906;2023-05-27T03:06:29;100386.75;;;17.27;100.00
6200;BME280;3133;43.214;27.906;2023-05-27T03:08:56;100363.91;;;17.27;100.00
6200;BME280;3133;43.214;27.906;2023-05-27T03:11:22;100388.66;;;17.52;100.00
6200;BME280;3133;43.214;27.906;2023-05-27T03:13:49;100368.44;;;17.53;100.00
6200;BME280;3133;43.214;27.906;2023-05-27T03:16:16;100383.78;;;17.68;100.00
6200;BME280;3133;43.214;27.906;2023-05-27T03:18:45;100386.06;;;17.80;100.00
6200;BME280;3133;43.214;27.906;2023-05-27T03:21:13;100384.78;;;17.92;100.00
6200;BME280;3133;43.214;27.906;2023-05-27T03:23:41;100391.69;;;17.96;100.00
6200;BME280;3133;43.214;27.906;2023-05-27T03:26:07;100389.47;;;18.10;100.00
6200;BME280;3133;43.214;27.906;2023-05-27T03:28:34;100391.75;;;18.20;100.00
6200;BME280;3133;43.214;27.906;2023-05-27T03:31:01;100394.94;;;18.30;100.00
6200;BME280;3133;43.214;27.906;2023-05-27T03:33:28;100400.66;;;18.42;100.00
6200;BME280;3133;43.214;27.906;2023-05-27T03:35:55;100374.53;;;18.35;100.00
6200;BME280;3133;43.214;27.906;2023-05-27T03:38:23;100403.00;;;18.53;100.00
6200;BME280;3133;43.214;27.906;2023-05-27T03:40:50;100400.59;;;18.46;100.00
6200;BME280;3133;43.214;27.906;2023-05-27T03:43:17;100403.03;;;18.52;100.00
6200;BME280;3133;43.214;27.906;2023-05-27T03:45:44;100380.22;;;18.49;100.00
6200;BME280;3133;43.214;27.906;2023-05-27T03:48:11;100369.84;;;18.43;100.00
6200;BME280;3133;43.214;27.906;2023-05-27T03:50:37;100407.75;;;18.68;100.00
6200;BME280;3133;43.214;27.906;2023-05-27T03:53:04;100417.81;;;18.82;100.00
6200;BME280;3133;43.214;27.906;2023-05-27T03:55:35;100421.66;;;18.98;100.00
6200;BME280;3133;43.214;27.906;2023-05-27T03:58:02;100354.91;;;18.68;100.00
6200;BME280;3133;43.214;27.906;2023-05-27T04:00:30;100417.91;;;19.03;100.00
6200;BME280;3133;43.214;27.906;2023-05-27T04:03:01;100413.63;;;19.24;100.00
6200;BME280;3133;43.214;27.906;2023-05-27T04:05:27;100428.28;;;19.34;100.00
6200;BME280;3133;43.214;27.906;2023-05-27T04:07:55;100401.50;;;19.19;100.00
6200;BME280;3133;43.214;27.906;2023-05-27T04:10:22;100405.22;;;19.38;100.00
6200;BME280;3133;43.214;27.906;2023-05-27T04:12:50;100360.97;;;19.18;100.00
6200;BME280;3133;43.214;27.906;2023-05-27T04:15:17;100437.88;;;19.60;100.00
6200;BME280;3133;43.214;27.906;2023-05-27T04:17:44;100437.00;;;19.59;100.00
6200;BME280;3133;43.214;27.906;2023-05-27T04:20:11;100399.50;;;19.48;100.00
6200;BME280;3133;43.214;27.906;2023-05-27T04:22:40;100410.38;;;19.64;100.00
6200;BME280;3133;43.214;27.906;2023-05-27T04:25:08;100437.16;;;20.00;100.00
6200;BME280;3133;43.214;27.906;2023-05-27T04:27:35;100431.94;;;20.20;100.00
6200;BME280;3133;43.214;27.906;2023-05-27T04:30:04;100428.41;;;20.19;100.00
6200;BME280;3133;43.214;27.906;2023-05-27T04:32:31;100431.53;;;20.30;100.00
6200;BME280;3133;43.214;27.906;2023-05-27T04:35:04;100438.34;;;20.14;100.00
6200;BME280;3133;43.214;27.906;2023-05-27T04:37:33;100429.88;;;20.28;100.00
6200;BME280;3133;43.214;27.906;2023-05-27T04:40:02;100414.47;;;20.37;100.00
6200;BME280;3133;43.214;27.906;2023-05-27T04:42:31;100420.53;;;20.61;100.00
6200;BME280;3133;43.214;27.906;2023-05-27T04:44:58;100368.03;;;20.49;100.00
6200;BME280;3133;43.214;27.906;2023-05-27T04:47:29;100415.81;;;20.68;100.00
6200;BME280;3133;43.214;27.906;2023-05-27T04:49:56;100416.75;;;20.87;100.00
6200;BME280;3133;43.214;27.906;2023-05-27T04:52:26;100447.88;;;21.22;100.00
6200;BME280;3133;43.214;27.906;2023-05-27T04:54:54;100438.06;;;21.24;100.00
6200;BME280;3133;43.214;27.906;2023-05-27T04:57:21;100420.69;;;20.97;100.00
6200;BME280;3133;43.214;27.906;2023-05-27T04:59:50;100434.31;;;20.89;100.00
6200;BME280;3133;43.214;27.906;2023-05-27T05:02:45;100442.13;;;20.92;100.00
6200;BME280;3133;43.214;27.906;2023-05-27T05:05:14;100457.03;;;20.95;100.00
6200;BME280;3133;43.214;27.906;2023-05-27T05:07:42;100473.06;;;20.92;100.00
6200;BME280;3133;43.214;27.906;2023-05-27T05:10:10;100469.22;;;20.99;100.00
6200;BME280;3133;43.214;27.906;2023-05-27T05:12:38;100463.13;;;20.97;100.00
6200;BME280;3133;43.214;27.906;2023-05-27T05:15:06;100467.63;;;20.95;100.00
6200;BME280;3133;43.214;27.906;2023-05-27T05:17:33;100472.81;;;20.78;100.00
6200;BME280;3133;43.214;27.906;2023-05-27T05:20:03;100466.63;;;19.69;100.00
6200;BME280;3133;43.214;27.906;2023-05-27T05:22:31;100468.22;;;19.96;100.00
6200;BME280;3133;43.214;27.906;2023-05-27T05:24:58;100467.72;;;20.08;100.00
6200;BME280;3133;43.214;27.906;2023-05-27T05:27:24;100473.59;;;20.16;100.00
6200;BME280;3133;43.214;27.906;2023-05-27T05:29:51;100476.75;;;20.26;100.00
6200;BME280;3133;43.214;27.906;2023-05-27T05:32:18;100477.50;;;20.06;100.00
6200;BME280;3133;43.214;27.906;2023-05-27T05:34:45;100472.09;;;20.09;100.00
6200;BME280;3133;43.214;27.906;2023-05-27T05:37:13;100456.09;;;19.91;100.00
6200;BME280;3133;43.214;27.906;2023-05-27T05:39:41;100449.16;;;19.86;100.00
6200;BME280;3133;43.214;27.906;2023-05-27T05:42:08;100474.19;;;20.01;100.00
6200;BME280;3133;43.214;27.906;2023-05-27T05:44:35;100350.75;;;19.09;100.00
6200;BME280;3133;43.214;27.906;2023-05-27T05:47:02;100476.41;;;19.67;100.00
6200;BME280;3133;43.214;27.906;2023-05-27T05:49:29;100475.88;;;18.85;100.00
6200;BME280;3133;43.214;27.906;2023-05-27T05:51:56;100470.66;;;18.82;100.00
6200;BME280;3133;43.214;27.906;2023-05-27T05:54:25;100467.81;;;18.63;100.00
6200;BME280;3133;43.214;27.906;2023-05-27T05:56:52;100471.47;;;18.84;100.00
6200;BME280;3133;43.214;27.906;2023-05-27T05:59:19;100440.13;;;18.49;100.00
6200;BME280;3133;43.214;27.906;2023-05-27T06:01:46;100459.41;;;18.77;100.00
6200;BME280;3133;43.214;27.906;2023-05-27T06:04:13;100458.31;;;18.82;100.00
6200;BME280;3133;43.214;27.906;2023-05-27T06:06:40;100452.72;;;18.91;100.00
6200;BME280;3133;43.214;27.906;2023-05-27T06:09:07;100465.88;;;19.18;100.00
6200;BME280;3133;43.214;27.906;2023-05-27T06:11:35;100464.78;;;19.23;100.00
6200;BME280;3133;43.214;27.906;2023-05-27T06:14:02;100472.13;;;19.40;100.00
6200;BME280;3133;43.214;27.906;2023-05-27T06:16:28;100470.63;;;19.33;100.00
6200;BME280;3133;43.214;27.906;2023-05-27T06:18:55;100474.97;;;19.34;100.00
6200;BME280;3133;43.214;27.906;2023-05-27T06:21:22;100479.03;;;19.44;100.00
6200;BME280;3133;43.214;27.906;2023-05-27T06:23:49;100474.34;;;19.52;100.00
6200;BME280;3133;43.214;27.906;2023-05-27T06:26:16;100465.06;;;19.40;100.00
6200;BME280;3133;43.214;27.906;2023-05-27T06:28:44;100488.00;;;19.40;100.00
6200;BME280;3133;43.214;27.906;2023-05-27T06:31:11;100474.63;;;19.44;100.00
6200;BME280;3133;43.214;27.906;2023-05-27T06:33:41;100483.59;;;19.63;100.00
6200;BME280;3133;43.214;27.906;2023-05-27T06:36:08;100464.19;;;19.63;100.00
6200;BME280;3133;43.214;27.906;2023-05-27T06:38:35;100469.50;;;19.63;100.00
6200;BME280;3133;43.214;27.906;2023-05-27T06:41:02;100485.56;;;19.81;100.00
6200;BME280;3133;43.214;27.906;2023-05-27T06:43:29;100483.72;;;19.83;100.00
6200;BME280;3133;43.214;27.906;2023-05-27T06:45:57;100470.75;;;19.76;100.00
6200;BME280;3133;43.214;27.906;2023-05-27T06:48:25;100476.94;;;19.98;100.00
6200;BME280;3133;43.214;27.906;2023-05-27T06:50:52;100476.34;;;20.13;100.00
6200;BME280;3133;43.214;27.906;2023-05-27T06:53:18;100429.03;;;20.04;100.00
6200;BME280;3133;43.214;27.906;2023-05-27T06:55:46;100482.41;;;20.38;100.00
6200;BME280;3133;43.214;27.906;2023-05-27T06:58:13;100490.00;;;20.47;100.00
6200;BME280;3133;43.214;27.906;2023-05-27T07:00:39;100490.00;;;20.47;100.00
6200;BME280;3133;43.214;27.906;2023-05-27T07:03:08;100389.47;;;19.56;100.00
6200;BME280;3133;43.214;27.906;2023-05-27T07:05:35;100441.34;;;19.83;100.00
6200;BME280;3133;43.214;27.906;2023-05-27T07:08:02;100314.50;;;18.65;100.00
6200;BME280;3133;43.214;27.906;2023-05-27T07:10:29;100481.94;;;19.84;100.00
6200;BME280;3133;43.214;27.906;2023-05-27T07:12:56;100354.63;;;19.22;100.00
6200;BME280;3133;43.214;27.906;2023-05-27T07:15:22;100456.91;;;19.91;100.00
6200;BME280;3133;43.214;27.906;2023-05-27T07:17:49;100437.34;;;19.95;100.00
6200;BME280;3133;43.214;27.906;2023-05-27T07:20:17;100487.44;;;20.44;100.00
6200;BME280;3133;43.214;27.906;2023-05-27T07:22:44;100488.22;;;20.48;100.00
6200;BME280;3133;43.214;27.906;2023-05-27T07:25:11;100493.53;;;20.68;100.00
6200;BME280;3133;43.214;27.906;2023-05-27T07:27:38;100494.75;;;20.39;100.00
6200;BME280;3133;43.214;27.906;2023-05-27T07:30:06;100494.50;;;20.24;100.00
6200;BME280;3133;43.214;27.906;2023-05-27T07:32:33;100490.59;;;20.54;100.00
6200;BME280;3133;43.214;27.906;2023-05-27T07:35:00;100494.59;;;20.42;100.00
6200;BME280;3133;43.214;27.906;2023-05-27T07:37:28;100490.16;;;20.43;100.00
6200;BME280;3133;43.214;27.906;2023-05-27T07:39:55;100485.38;;;20.31;100.00
6200;BME280;3133;43.214;27.906;2023-05-27T07:42:22;100481.44;;;19.96;100.00
6200;BME280;3133;43.214;27.906;2023-05-27T07:44:49;100431.06;;;20.19;100.00
6200;BME280;3133;43.214;27.906;2023-05-27T07:47:16;100458.50;;;20.61;100.00
6200;BME280;3133;43.214;27.906;2023-05-27T07:49:43;100434.50;;;20.64;100.00
6200;BME280;3133;43.214;27.906;2023-05-27T07:52:10;100471.56;;;20.86;100.00
6200;BME280;3133;43.214;27.906;2023-05-27T07:54:38;100472.41;;;20.87;100.00
6200;BME280;3133;43.214;27.906;2023-05-27T07:57:06;100459.00;;;20.90;100.00
6200;BME280;3133;43.214;27.906;2023-05-27T07:59:32;100453.53;;;21.14;100.00
6200;BME280;3133;43.214;27.906;2023-05-27T08:01:59;100473.81;;;21.35;100.00
6200;BME280;3133;43.214;27.906;2023-05-27T08:04:26;100471.84;;;21.20;100.00
6200;BME280;3133;43.214;27.906;2023-05-27T08:06:53;100476.81;;;21.08;100.00
6200;BME280;3133;43.214;27.906;2023-05-27T08:09:20;100461.69;;;21.10;100.00
6200;BME280;3133;43.214;27.906;2023-05-27T08:11:48;100479.97;;;21.36;100.00
6200;BME280;3133;43.214;27.906;2023-05-27T08:14:15;100355.94;;;20.63;100.00
6200;BME280;3133;43.214;27.906;2023-05-27T08:16:42;100476.03;;;21.06;100.00
6200;BME280;3133;43.214;27.906;2023-05-27T08:19:09;100477.03;;;21.23;100.00
6200;BME280;3133;43.214;27.906;2023-05-27T08:21:36;100478.78;;;21.43;100.00
6200;BME280;3133;43.214;27.906;2023-05-27T08:24:02;100453.28;;;21.39;100.00
6200;BME280;3133;43.214;27.906;2023-05-27T08:26:30;100478.66;;;21.65;100.00
6200;BME280;3133;43.214;27.906;2023-05-27T08:28:59;100470.84;;;21.80;100.00
6200;BME280;3133;43.214;27.906;2023-05-27T08:31:25;100453.28;;;21.39;100.00
6200;BME280;3133;43.214;27.906;2023-05-27T08:33:52;100471.13;;;21.56;100.00
6200;BME280;3133;43.214;27.906;2023-05-27T08:36:19;100463.06;;;21.38;100.00
6200;BME280;3133;43.214;27.906;2023-05-27T08:38:46;100467.84;;;20.90;100.00
6200;BME280;3133;43.214;27.906;2023-05-27T08:41:13;100468.69;;;20.71;100.00
6200;BME280;3133;43.214;27.906;2023-05-27T08:43:40;100466.06;;;20.49;100.00
6200;BME280;3133;43.214;27.906;2023-05-27T08:46:09;100445.91;;;20.45;100.00
6200;BME280;3133;43.214;27.906;2023-05-27T08:48:37;100453.13;;;20.63;100.00
6200;BME280;3133;43.214;27.906;2023-05-27T08:51:05;100457.56;;;20.83;100.00
6200;BME280;3133;43.214;27.906;2023-05-27T08:53:32;100425.63;;;20.66;100.00
6200;BME280;3133;43.214;27.906;2023-05-27T08:56:00;100411.16;;;20.52;100.00
6200;BME280;3133;43.214;27.906;2023-05-27T08:58:28;100444.38;;;20.81;100.00
6200;BME280;3133;43.214;27.906;2023-05-27T09:00:55;100438.53;;;20.73;100.00
6200;BME280;3133;43.214;27.906;2023-05-27T09:03:24;100447.59;;;20.47;100.00
6200;BME280;3133;43.214;27.906;2023-05-27T09:05:54;100449.38;;;20.47;100.00
6200;BME280;3133;43.214;27.906;2023-05-27T09:08:21;100416.44;;;20.32;100.00
6200;BME280;3133;43.214;27.906;2023-05-27T09:10:48;100439.13;;;20.59;100.00
6200;BME280;3133;43.214;27.906;2023-05-27T09:13:25;100434.84;;;20.14;100.00
6200;BME280;3133;43.214;27.906;2023-05-27T09:15:57;100445.66;;;19.86;100.00
6200;BME280;3133;43.214;27.906;2023-05-27T09:18:27;100437.63;;;19.66;100.00
6200;BME280;3133;43.214;27.906;2023-05-27T09:20:55;100403.81;;;19.28;100.00
6200;BME280;3133;43.214;27.906;2023-05-27T09:23:22;100419.81;;;19.48;100.00
6200;BME280;3133;43.214;27.906;2023-05-27T09:25:49;100418.78;;;19.52;100.00
6200;BME280;3133;43.214;27.906;2023-05-27T09:28:21;100409.41;;;19.43;100.00
6200;BME280;3133;43.214;27.906;2023-05-27T09:30:51;100346.72;;;18.99;100.00
6200;BME280;3133;43.214;27.906;2023-05-27T09:33:23;100388.00;;;19.49;100.00
6200;BME280;3133;43.214;27.906;2023-05-27T09:35:51;100391.31;;;19.54;100.00
6200;BME280;3133;43.214;27.906;2023-05-27T09:38:18;100399.03;;;19.14;100.00
6200;BME280;3133;43.214;27.906;2023-05-27T09:40:45;100381.63;;;19.08;100.00
6200;BME280;3133;43.214;27.906;2023-05-27T09:43:13;100392.59;;;19.21;100.00
6200;BME280;3133;43.214;27.906;2023-05-27T09:45:41;100380.09;;;19.01;100.00
6200;BME280;3133;43.214;27.906;2023-05-27T09:48:10;100385.47;;;19.00;100.00
6200;BME280;3133;43.214;27.906;2023-05-27T09:50:39;100322.59;;;18.60;100.00
6200;BME280;3133;43.214;27.906;2023-05-27T09:53:10;100386.97;;;18.82;100.00
6200;BME280;3133;43.214;27.906;2023-05-27T09:55:37;100379.06;;;18.82;100.00
6200;BME280;3133;43.214;27.906;2023-05-27T09:58:05;100385.94;;;18.86;100.00
6200;BME280;3133;43.214;27.906;2023-05-27T10:00:33;100234.16;;;17.98;100.00
6200;BME280;3133;43.214;27.906;2023-05-27T10:03:00;100337.94;;;18.51;100.00
6200;BME280;3133;43.214;27.906;2023-05-27T10:05:29;100358.66;;;18.86;100.00
6200;BME280;3133;43.214;27.906;2023-05-27T10:07:56;100355.09;;;18.87;100.00
6200;BME280;3133;43.214;27.906;2023-05-27T10:10:25;100361.59;;;19.01;100.00
6200;BME280;3133;43.214;27.906;2023-05-27T10:12:53;100272.38;;;18.12;100.00
6200;BME280;3133;43.214;27.906;2023-05-27T10:15:22;100278.47;;;18.14;100.00
6200;BME280;3133;43.214;27.906;2023-05-27T10:17:52;100351.91;;;18.77;100.00
6200;BME280;3133;43.214;27.906;2023-05-27T10:20:35;100360.75;;;18.53;100.00
6200;BME280;3133;43.214;27.906;2023-05-27T10:23:09;100356.78;;;18.65;100.00
6200;BME280;3133;43.214;27.906;2023-05-27T10:25:39;100358.69;;;18.61;100.00
6200;BME280;3133;43.214;27.906;2023-05-27T10:28:09;100286.94;;;17.98;100.00
6200;BME280;3133;43.214;27.906;2023-05-27T10:30:43;100202.22;;;17.56;100.00
6200;BME280;3133;43.214;27.906;2023-05-27T10:33:13;100362.06;;;18.65;100.00
6200;BME280;3133;43.214;27.906;2023-05-27T10:35:42;100376.06;;;18.68;100.00
6200;BME280;3133;43.214;27.906;2023-05-27T10:38:16;100340.81;;;18.17;100.00
6200;BME280;3133;43.214;27.906;2023-05-27T10:40:47;100283.56;;;17.68;100.00
6200;BME280;3133;43.214;27.906;2023-05-27T10:43:20;100351.13;;;17.98;100.00
6200;BME280;3133;43.214;27.906;2023-05-27T10:45:47;100395.66;;;18.09;100.00
6200;BME280;3133;43.214;27.906;2023-05-27T10:48:17;100410.19;;;18.22;100.00
6200;BME280;3133;43.214;27.906;2023-05-27T10:50:53;100295.66;;;17.46;100.00
6200;BME280;3133;43.214;27.906;2023-05-27T10:53:20;100344.22;;;17.68;100.00
6200;BME280;3133;43.214;27.906;2023-05-27T10:55:49;100389.63;;;18.05;100.00
6200;BME280;3133;43.214;27.906;2023-05-27T10:58:20;100382.75;;;18.26;100.00
6200;BME280;3133;43.214;27.906;2023-05-27T11:00:49;100333.63;;;18.22;100.00
6200;BME280;3133;43.214;27.906;2023-05-27T11:03:17;100404.34;;;18.89;100.00
6200;BME280;3133;43.214;27.906;2023-05-27T11:05:44;100401.03;;;19.07;100.00
6200;BME280;3133;43.214;27.906;2023-05-27T11:08:14;100392.25;;;19.30;100.00
6200;BME280;3133;43.214;27.906;2023-05-27T11:10:46;100390.91;;;19.43;100.00
6200;BME280;3133;43.214;27.906;2023-05-27T11:13:16;100350.78;;;19.07;100.00
6200;BME280;3133;43.214;27.906;2023-05-27T11:15:43;100391.78;;;19.19;100.00
6200;BME280;3133;43.214;27.906;2023-05-27T11:18:12;100292.88;;;18.78;100.00
6200;BME280;3133;43.214;27.906;2023-05-27T11:20:41;100323.47;;;18.85;100.00
6200;BME280;3133;43.214;27.906;2023-05-27T11:23:17;100326.38;;;18.78;100.00
6200;BME280;3133;43.214;27.906;2023-05-27T11:25:49;100361.28;;;19.10;100.00
6200;BME280;3133;43.214;27.906;2023-05-27T11:28:18;100351.03;;;19.01;100.00
6200;BME280;3133;43.214;27.906;2023-05-27T11:30:45;100357.03;;;19.06;100.00
6200;BME280;3133;43.214;27.906;2023-05-27T11:33:13;100352.13;;;19.19;100.00
6200;BME280;3133;43.214;27.906;2023-05-27T11:35:41;100354.47;;;19.27;100.00
6200;BME280;3133;43.214;27.906;2023-05-27T11:38:16;100281.13;;;18.62;100.00
6200;BME280;3133;43.214;27.906;2023-05-27T11:40:43;100358.63;;;19.10;100.00
6200;BME280;3133;43.214;27.906;2023-05-27T11:43:18;100254.75;;;18.37;100.00
6200;BME280;3133;43.214;27.906;2023-05-27T11:45:45;100362.47;;;19.02;100.00
6200;BME280;3133;43.214;27.906;2023-05-27T11:48:13;100305.06;;;18.82;100.00
6200;BME280;3133;43.214;27.906;2023-05-27T11:50:40;100320.75;;;18.87;100.00
6200;BME280;3133;43.214;27.906;2023-05-27T11:53:07;100312.06;;;18.83;100.00
6200;BME280;3133;43.214;27.906;2023-05-27T11:55:34;100340.06;;;18.89;100.00
6200;BME280;3133;43.214;27.906;2023-05-27T11:58:02;100327.66;;;18.66;100.00
6200;BME280;3133;43.214;27.906;2023-05-27T12:00:31;100359.03;;;18.75;100.00
6200;BME280;3133;43.214;27.906;2023-05-27T12:02:58;100372.41;;;18.71;100.00
6200;BME280;3133;43.214;27.906;2023-05-27T12:05:25;100317.69;;;18.50;100.00
6200;BME280;3133;43.214;27.906;2023-05-27T12:07:52;100360.28;;;18.65;100.00
6200;BME280;3133;43.214;27.906;2023-05-27T12:10:19;100358.72;;;18.60;100.00
6200;BME280;3133;43.214;27.906;2023-05-27T12:12:46;100353.28;;;18.64;100.00
6200;BME280;3133;43.214;27.906;2023-05-27T12:15:13;100363.97;;;18.61;100.00
6200;BME280;3133;43.214;27.906;2023-05-27T12:17:43;100323.13;;;18.47;100.00
6200;BME280;3133;43.214;27.906;2023-05-27T12:20:13;100350.59;;;18.66;100.00
6200;BME280;3133;43.214;27.906;2023-05-27T12:22:41;100360.06;;;18.71;100.00
6200;BME280;3133;43.214;27.906;2023-05-27T12:25:08;100344.53;;;18.62;100.00
6200;BME280;3133;43.214;27.906;2023-05-27T12:27:35;100320.91;;;18.59;100.00
6200;BME280;3133;43.214;27.906;2023-05-27T12:30:02;100374.13;;;18.96;100.00
6200;BME280;3133;43.214;27.906;2023-05-27T12:32:29;100385.31;;;19.03;100.00
6200;BME280;3133;43.214;27.906;2023-05-27T12:34:58;100381.31;;;18.93;100.00
6200;BME280;3133;43.214;27.906;2023-05-27T12:37:25;100385.06;;;19.10;100.00
6200;BME280;3133;43.214;27.906;2023-05-27T12:39:53;100319.16;;;18.83;100.00
6200;BME280;3133;43.214;27.906;2023-05-27T12:42:20;100343.66;;;18.86;100.00
6200;BME280;3133;43.214;27.906;2023-05-27T12:44:48;100393.91;;;19.34;100.00
6200;BME280;3133;43.214;27.906;2023-05-27T12:47:14;100386.00;;;19.56;100.00
6200;BME280;3133;43.214;27.906;2023-05-27T12:49:43;100387.78;;;19.77;100.00
6200;BME280;3133;43.214;27.906;2023-05-27T12:52:11;100388.84;;;19.95;100.00
6200;BME280;3133;43.214;27.906;2023-05-27T12:54:38;100373.44;;;20.04;100.00